Capitol Logistics 3273




MYGF
Grand Bahama International Airport
Freeport, BS
MYNN
Lynden Pindling International Airport
Nassau, BS

Activity Log

Date Flight Route Aircraft Duration
03/15/2021 CPX3273 BUUCK2 CEGUR BAYRU BR63V HANKX AR3 MELON SF34 0h 45m
04/11/2020 CPX3273 ZFP BR65V ZQA SF34 0h 56m
11/05/2019 CPX673 ZFP BR65V ZQA SF34 0h 56m
10/11/2019 CPX673 ZFP BR65V ZQA SF34 0h 47m
09/14/2019 CPX673 ZFP BR65V ZQA SF34 0h 36m
06/27/2019 CPX673 ZFP BR65V ZQA SF34 0h 38m
06/25/2019 CPX673 ZFP BR65V ZQA SF34 0h 45m

Route Details

Aircraft Information
Primary: Saab 340AF
Backup: Not Available
Route Data
Distance: 113nm
Duration: 2h 00m
Recm'd Route: ZFP BR65V ZQA
Origin Wx: MYGF 180200Z AUTO 19005KT //// R24/P2000N // FEW180/// 25/22 A2990
Dest. Wx: MYNN 180200Z 04004KT 9999 FEW025 25/23 A2995
Notes: